createdAt,value
2022-12-17T00:02:28.902Z,18.10
2022-12-17T00:05:18.075Z,20.03
2022-12-17T00:08:04.370Z,20.13
2022-12-17T00:10:50.481Z,21.23
2022-12-17T00:13:37.848Z,18.83
2022-12-17T00:16:25.036Z,23.20
2022-12-17T00:19:11.401Z,21.23
2022-12-17T00:22:10.292Z,22.73
2022-12-17T00:24:56.351Z,25.03
2022-12-17T00:27:42.459Z,25.00
2022-12-17T00:30:28.487Z,27.10
2022-12-17T00:33:14.580Z,24.07
2022-12-17T00:36:00.529Z,31.30
2022-12-17T00:38:47.792Z,25.63
2022-12-17T00:41:33.997Z,25.53
2022-12-17T00:44:19.786Z,29.73
2022-12-17T00:47:06.111Z,26.47
2022-12-17T00:49:51.932Z,26.87
2022-12-17T00:52:37.936Z,27.30
2022-12-17T00:55:21.947Z,27.60
2022-12-17T00:58:11.357Z,30.03
2022-12-17T01:00:57.070Z,31.77
2022-12-17T01:03:42.930Z,29.93
2022-12-17T01:06:28.869Z,33.50
2022-12-17T01:09:15.102Z,34.93
2022-12-17T01:12:02.772Z,27.97
2022-12-17T01:14:48.851Z,31.27
2022-12-17T01:17:35.137Z,31.37
2022-12-17T01:20:21.255Z,27.60
2022-12-17T01:23:07.338Z,32.83
2022-12-17T01:25:53.190Z,38.60
2022-12-17T01:28:46.297Z,28.60
2022-12-17T01:31:34.938Z,25.67
2022-12-17T01:34:21.419Z,23.73
2022-12-17T01:37:07.452Z,25.77
2022-12-17T01:39:53.699Z,27.53
2022-12-17T01:42:48.177Z,30.07
2022-12-17T01:45:35.828Z,27.00
2022-12-17T01:48:22.353Z,27.50
2022-12-17T01:51:08.935Z,25.23
2022-12-17T01:53:55.477Z,25.13
2022-12-17T01:56:42.418Z,29.23
2022-12-17T01:59:28.642Z,27.37
2022-12-17T02:02:16.096Z,23.93
2022-12-17T02:05:02.135Z,23.30
2022-12-17T02:07:53.876Z,22.00
2022-12-17T02:10:42.484Z,20.47
2022-12-17T02:13:30.882Z,24.70
2022-12-17T02:16:18.282Z,24.23
2022-12-17T02:19:08.302Z,24.17
2022-12-17T02:21:59.714Z,22.30
2022-12-17T02:24:48.235Z,23.00
2022-12-17T02:27:35.683Z,20.27
2022-12-17T02:30:25.294Z,24.33
2022-12-17T02:33:07.513Z,22.30
2022-12-17T02:35:54.718Z,23.77
2022-12-17T02:38:43.315Z,23.13
2022-12-17T02:41:29.294Z,24.07
2022-12-17T02:44:16.845Z,23.33
2022-12-17T02:47:03.139Z,25.93
2022-12-17T02:49:48.985Z,25.23
2022-12-17T02:52:50.188Z,25.93
2022-12-17T02:55:36.121Z,21.40
2022-12-17T02:58:22.159Z,24.20
2022-12-17T03:01:09.633Z,23.13
2022-12-17T03:03:55.880Z,25.10
2022-12-17T03:06:41.779Z,24.20
2022-12-17T03:09:27.120Z,23.77
2022-12-17T03:12:13.125Z,25.60
2022-12-17T03:14:58.946Z,26.47
2022-12-17T03:17:46.168Z,26.80
2022-12-17T03:20:31.987Z,26.77
2022-12-17T03:23:20.928Z,29.07
2022-12-17T03:26:06.888Z,29.87
2022-12-17T03:28:52.797Z,28.17
2022-12-17T03:31:38.861Z,25.40
2022-12-17T03:34:26.445Z,28.17
2022-12-17T03:37:12.375Z,26.47
2022-12-17T03:39:58.235Z,26.23
2022-12-17T03:42:44.308Z,27.10
2022-12-17T03:45:30.464Z,25.23
2022-12-17T03:48:23.360Z,25.87
2022-12-17T03:51:10.811Z,26.77
2022-12-17T03:53:56.667Z,28.70
2022-12-17T03:56:42.933Z,28.37
2022-12-17T03:59:28.867Z,30.93
2022-12-17T04:02:15.151Z,32.53
2022-12-17T04:05:01.263Z,29.30
2022-12-17T04:07:49.049Z,26.73
2022-12-17T04:10:35.008Z,31.13
2022-12-17T04:13:21.399Z,30.13
2022-12-17T04:16:07.225Z,28.40
2022-12-17T04:18:53.113Z,31.97
2022-12-17T04:21:38.984Z,29.90
2022-12-17T04:24:26.379Z,30.23
2022-12-17T04:27:12.457Z,34.30
2022-12-17T04:29:58.835Z,27.90
2022-12-17T04:32:44.690Z,29.10
2022-12-17T04:35:30.495Z,33.30
2022-12-17T04:38:30.879Z,34.20
2022-12-17T04:41:17.984Z,39.23
2022-12-17T04:44:04.119Z,29.53
2022-12-17T04:46:50.209Z,31.37
2022-12-17T04:49:35.963Z,33.93
2022-12-17T04:52:22.202Z,32.67
2022-12-17T04:55:08.059Z,28.83
2022-12-17T04:57:55.636Z,33.90
2022-12-17T05:00:41.716Z,32.20
2022-12-17T05:03:29.144Z,36.40
2022-12-17T05:06:15.348Z,34.53
2022-12-17T05:09:06.557Z,37.20
2022-12-17T05:11:52.680Z,30.50
2022-12-17T05:14:39.734Z,32.70
2022-12-17T05:17:25.782Z,38.23
2022-12-17T05:20:11.890Z,39.73
2022-12-17T05:22:57.742Z,39.73
2022-12-17T05:25:43.992Z,34.67
2022-12-17T05:28:29.740Z,38.47
2022-12-17T05:31:17.147Z,37.90
2022-12-17T05:34:03.070Z,36.57
2022-12-17T05:36:49.198Z,37.53
2022-12-17T05:39:43.625Z,36.63
2022-12-17T05:42:29.558Z,37.90
2022-12-17T05:45:15.558Z,36.17
2022-12-17T05:48:03.350Z,42.33
2022-12-17T05:50:49.449Z,35.90
2022-12-17T05:53:35.121Z,39.73
2022-12-17T05:56:21.480Z,42.43
2022-12-17T05:59:07.161Z,41.40
2022-12-17T06:01:53.353Z,43.07
2022-12-17T06:04:40.037Z,37.73
2022-12-17T06:07:25.950Z,41.30
2022-12-17T06:10:12.034Z,38.73
2022-12-17T06:12:58.037Z,38.13
2022-12-17T06:15:43.965Z,38.60
2022-12-17T06:18:41.222Z,34.43
2022-12-17T06:21:28.181Z,39.93
2022-12-17T06:24:14.062Z,39.73
2022-12-17T06:26:59.922Z,44.83
2022-12-17T06:29:46.050Z,38.07
2022-12-17T06:32:32.040Z,47.77
2022-12-17T06:35:17.935Z,42.27
2022-12-17T06:38:05.272Z,42.50
2022-12-17T06:40:51.048Z,45.20
2022-12-17T06:43:37.315Z,44.63
2022-12-17T06:46:23.371Z,42.00
2022-12-17T06:49:09.244Z,43.50
2022-12-17T06:51:51.537Z,46.33
2022-12-17T06:54:38.881Z,43.27
2022-12-17T06:57:24.854Z,45.30
2022-12-17T07:00:11.066Z,45.23
2022-12-17T07:02:56.991Z,45.50
2022-12-17T07:05:43.364Z,46.10
2022-12-17T07:08:29.423Z,46.20
2022-12-17T07:11:18.280Z,46.57
2022-12-17T07:14:04.337Z,41.90
2022-12-17T07:16:50.427Z,48.83
2022-12-17T07:19:36.178Z,48.60
2022-12-17T07:22:22.249Z,40.87
2022-12-17T07:25:16.816Z,48.03
2022-12-17T07:28:11.531Z,45.13
2022-12-17T07:30:57.430Z,49.30
2022-12-17T07:33:43.480Z,48.87
2022-12-17T07:36:29.631Z,45.87
2022-12-17T07:39:15.414Z,49.20
2022-12-17T07:42:01.562Z,46.50
2022-12-17T07:44:48.847Z,51.60
2022-12-17T07:47:34.916Z,46.13
2022-12-17T07:50:20.902Z,47.67
2022-12-17T07:53:06.620Z,50.40
2022-12-17T07:55:52.671Z,42.70
2022-12-17T07:58:38.479Z,43.60
2022-12-17T08:01:26.218Z,46.70
2022-12-17T08:04:12.306Z,46.97
2022-12-17T08:07:02.847Z,46.13
2022-12-17T08:09:51.480Z,44.03
2022-12-17T08:12:37.243Z,41.27
2022-12-17T08:15:23.572Z,47.07
2022-12-17T08:18:10.787Z,42.10
2022-12-17T08:20:56.579Z,38.23
2022-12-17T08:23:42.459Z,42.93
2022-12-17T08:26:28.423Z,48.97
2022-12-17T08:29:14.762Z,47.57
2022-12-17T08:32:00.994Z,41.77
2022-12-17T08:34:48.419Z,45.90
2022-12-17T08:37:34.264Z,42.53
2022-12-17T08:40:20.402Z,42.13
2022-12-17T08:43:06.687Z,49.63
2022-12-17T08:45:52.757Z,44.53
2022-12-17T08:48:38.793Z,44.40
2022-12-17T08:51:26.028Z,50.53
2022-12-17T08:54:12.240Z,47.13
2022-12-17T08:56:58.459Z,47.93
2022-12-17T08:59:46.967Z,53.03
2022-12-17T09:02:35.989Z,47.30
2022-12-17T09:05:22.139Z,43.73
2022-12-17T09:08:09.459Z,51.53
2022-12-17T09:10:55.417Z,50.47
2022-12-17T09:13:41.099Z,45.27
2022-12-17T09:16:27.448Z,45.90
2022-12-17T09:19:13.460Z,49.17
2022-12-17T09:21:59.460Z,48.20
2022-12-17T09:24:46.812Z,51.87
2022-12-17T09:27:32.920Z,47.47
2022-12-17T09:30:19.073Z,49.20
2022-12-17T09:33:05.062Z,53.37
2022-12-17T09:35:51.044Z,48.53
2022-12-17T09:38:37.067Z,50.47
2022-12-17T09:41:27.145Z,53.83
2022-12-17T09:44:14.662Z,50.67
2022-12-17T09:47:02.234Z,50.53
2022-12-17T09:49:48.771Z,49.63
2022-12-17T09:52:37.705Z,51.80
2022-12-17T09:55:28.049Z,45.73
2022-12-17T09:58:15.359Z,51.53
2022-12-17T10:01:01.835Z,54.33
2022-12-17T10:03:47.621Z,55.27
2022-12-17T10:06:36.551Z,52.40
2022-12-17T10:09:22.844Z,47.00
2022-12-17T10:12:09.553Z,50.47
2022-12-17T10:14:57.243Z,55.80
2022-12-17T10:17:44.461Z,60.03
2022-12-17T10:20:33.838Z,49.77
2022-12-17T10:23:20.494Z,50.70
2022-12-17T10:26:09.597Z,53.20
2022-12-17T10:28:55.825Z,50.60
2022-12-17T10:31:43.411Z,49.37
2022-12-17T10:34:32.030Z,53.47
2022-12-17T10:37:18.066Z,49.03
2022-12-17T10:40:11.993Z,46.07
2022-12-17T10:42:58.262Z,47.77
2022-12-17T10:45:45.456Z,50.13
2022-12-17T10:48:39.783Z,46.57
2022-12-17T10:51:25.778Z,48.87
2022-12-17T10:54:11.690Z,45.47
2022-12-17T10:57:06.667Z,47.97
2022-12-17T10:59:55.179Z,48.90
2022-12-17T11:02:43.309Z,48.30
2022-12-17T11:05:33.675Z,45.53
2022-12-17T11:08:19.702Z,47.60
2022-12-17T11:11:05.840Z,43.43
2022-12-17T11:13:52.169Z,41.03
2022-12-17T11:17:02.944Z,42.83
2022-12-17T11:19:54.516Z,43.50
2022-12-17T11:22:43.963Z,42.10
2022-12-17T11:25:36.777Z,41.57
2022-12-17T11:28:29.808Z,45.50
2022-12-17T11:31:21.375Z,43.83
2022-12-17T11:34:11.969Z,41.07
2022-12-17T11:37:03.307Z,39.33
2022-12-17T11:39:53.152Z,35.47
2022-12-17T11:42:43.386Z,42.53
2022-12-17T11:45:39.473Z,37.27
2022-12-17T11:48:27.304Z,40.17
2022-12-17T11:51:13.598Z,35.03
2022-12-17T11:54:05.625Z,34.50
2022-12-17T11:56:54.802Z,38.53
2022-12-17T11:59:47.930Z,33.63
2022-12-17T12:02:45.000Z,32.37
2022-12-17T12:05:34.723Z,34.40
2022-12-17T12:08:23.754Z,32.80
2022-12-17T12:11:11.472Z,34.70
2022-12-17T12:13:59.776Z,32.80
2022-12-17T12:16:52.658Z,39.70
2022-12-17T12:19:39.601Z,34.37
2022-12-17T12:22:30.625Z,35.93
2022-12-17T12:25:25.917Z,35.93
2022-12-17T12:28:18.367Z,32.37
2022-12-17T12:31:07.488Z,41.20
2022-12-17T12:33:55.138Z,33.00
2022-12-17T12:36:41.337Z,40.67
2022-12-17T12:39:30.175Z,33.93
2022-12-17T12:42:17.459Z,34.83
2022-12-17T12:45:04.984Z,31.97
2022-12-17T12:47:55.015Z,38.20
2022-12-17T12:50:41.979Z,38.13
2022-12-17T12:53:29.288Z,37.07
2022-12-17T12:56:16.906Z,35.40
2022-12-17T12:59:08.446Z,36.27
2022-12-17T13:01:55.346Z,34.87
2022-12-17T13:04:47.165Z,37.10
2022-12-17T13:07:25.497Z,37.17
2022-12-17T13:09:54.380Z,38.93
2022-12-17T13:12:28.147Z,40.10
2022-12-17T13:14:58.214Z,36.83
2022-12-17T13:17:30.857Z,45.70
2022-12-17T13:20:04.889Z,43.50
2022-12-17T13:22:33.730Z,37.23
2022-12-17T13:25:16.677Z,41.37
2022-12-17T13:27:45.282Z,43.50
2022-12-17T13:30:21.432Z,43.17
2022-12-17T13:32:50.714Z,33.93
2022-12-17T13:35:22.429Z,40.00
2022-12-17T13:37:54.082Z,35.87
2022-12-17T13:40:25.573Z,45.90
2022-12-17T13:42:53.991Z,41.70
2022-12-17T13:45:23.744Z,40.30
2022-12-17T13:47:54.909Z,40.20
2022-12-17T13:50:33.758Z,37.93
2022-12-17T13:53:10.195Z,45.57
2022-12-17T13:55:39.806Z,41.80
2022-12-17T13:58:20.896Z,46.00
2022-12-17T14:00:49.292Z,47.43
2022-12-17T14:03:22.736Z,38.10
2022-12-17T14:06:03.994Z,42.00
2022-12-17T14:08:33.384Z,43.67
2022-12-17T14:11:15.908Z,38.63
2022-12-17T14:13:44.508Z,43.13
2022-12-17T14:16:13.101Z,40.17
2022-12-17T14:18:41.830Z,45.70
2022-12-17T14:21:11.619Z,41.53
2022-12-17T14:23:40.181Z,42.33
2022-12-17T14:26:08.627Z,40.53
2022-12-17T14:28:37.736Z,41.37
2022-12-17T14:34:02.157Z,41.57
2022-12-17T14:36:32.030Z,41.30
2022-12-17T14:39:01.013Z,41.93
2022-12-17T14:41:47.353Z,44.00
2022-12-17T14:44:21.503Z,41.07
2022-12-17T14:46:50.263Z,36.90
2022-12-17T14:49:19.439Z,41.93
2022-12-17T14:51:49.456Z,41.33
2022-12-17T14:54:22.165Z,49.87
2022-12-17T14:56:51.033Z,38.57
2022-12-17T14:59:29.530Z,38.97
2022-12-17T15:02:01.584Z,45.17
2022-12-17T15:04:31.218Z,44.93
2022-12-17T15:07:04.961Z,47.23
2022-12-17T15:09:37.738Z,41.83
2022-12-17T15:12:08.080Z,44.43
2022-12-17T15:14:36.554Z,42.23
2022-12-17T15:17:06.072Z,46.83
2022-12-17T15:19:34.684Z,46.80
2022-12-17T15:22:06.087Z,52.67
2022-12-17T15:24:34.600Z,48.20
2022-12-17T15:27:03.205Z,50.03
2022-12-17T15:29:32.058Z,51.17
2022-12-17T15:32:01.105Z,50.60
2022-12-17T15:34:29.788Z,50.00
2022-12-17T15:36:58.492Z,54.20
2022-12-17T15:39:28.515Z,55.20
2022-12-17T15:42:15.818Z,60.70
2022-12-17T15:44:44.642Z,56.90
2022-12-17T15:47:13.672Z,58.90
2022-12-17T15:49:43.952Z,59.63
2022-12-17T15:52:15.275Z,59.57
2022-12-17T15:54:49.526Z,57.20
2022-12-17T15:57:18.981Z,65.97
2022-12-17T15:59:52.470Z,61.73
2022-12-17T16:02:23.573Z,67.27
2022-12-17T16:04:53.909Z,68.33
2022-12-17T16:07:24.870Z,60.60
2022-12-17T16:10:03.156Z,66.57
2022-12-17T16:12:33.805Z,63.63
2022-12-17T16:15:02.897Z,65.53
2022-12-17T16:17:32.354Z,65.03
2022-12-17T16:20:01.673Z,63.17
2022-12-17T16:22:33.668Z,65.00
2022-12-17T16:25:07.805Z,64.87
2022-12-17T16:27:40.219Z,64.13
2022-12-17T16:30:15.272Z,74.17
2022-12-17T16:32:44.856Z,65.33
2022-12-17T16:35:15.853Z,66.83
2022-12-17T16:37:47.233Z,64.67
2022-12-17T16:40:17.827Z,66.87
2022-12-17T16:42:48.776Z,74.97
2022-12-17T16:45:25.681Z,72.87
2022-12-17T16:47:54.499Z,63.10
2022-12-17T16:50:23.292Z,66.97
2022-12-17T16:52:54.301Z,71.40
2022-12-17T16:55:24.538Z,72.13
2022-12-17T16:57:55.773Z,76.07
2022-12-17T17:00:25.024Z,76.47
2022-12-17T17:02:54.054Z,76.60
2022-12-17T17:05:23.144Z,79.60
2022-12-17T17:07:53.445Z,72.73
2022-12-17T17:10:23.305Z,72.53
2022-12-17T17:12:58.194Z,76.63
2022-12-17T17:15:30.397Z,73.63
2022-12-17T17:18:04.538Z,78.27
2022-12-17T17:20:35.734Z,72.37
2022-12-17T17:23:04.795Z,75.67
2022-12-17T17:25:54.285Z,76.97
2022-12-17T17:28:24.049Z,84.23
2022-12-17T17:30:52.944Z,75.47
2022-12-17T17:33:21.620Z,78.47
2022-12-17T17:35:50.409Z,79.70
2022-12-17T17:38:19.098Z,82.10
2022-12-17T17:40:47.561Z,86.87
2022-12-17T17:43:16.310Z,80.63
2022-12-17T17:46:04.564Z,85.73
2022-12-17T17:48:35.738Z,92.57
2022-12-17T17:51:05.058Z,87.63
2022-12-17T17:53:33.739Z,89.47
2022-12-17T17:56:05.719Z,99.73
2022-12-17T17:58:34.780Z,87.63
2022-12-17T18:01:15.977Z,100.97
2022-12-17T18:03:47.332Z,91.43
2022-12-17T18:06:16.421Z,88.80
2022-12-17T18:08:45.220Z,103.30
2022-12-17T18:11:22.921Z,100.33
2022-12-17T18:14:13.050Z,101.67
2022-12-17T18:16:43.301Z,99.87
2022-12-17T18:19:12.358Z,105.60
2022-12-17T18:21:41.008Z,95.83
2022-12-17T18:24:12.336Z,104.93
2022-12-17T18:26:42.864Z,95.33
2022-12-17T18:29:12.311Z,104.10
2022-12-17T18:31:50.002Z,98.70
2022-12-17T18:34:22.945Z,96.37
2022-12-17T18:36:52.168Z,93.73
2022-12-17T18:39:21.674Z,105.63
2022-12-17T18:42:07.943Z,99.37
2022-12-17T18:44:38.532Z,97.50
2022-12-17T18:47:09.405Z,91.57
2022-12-17T18:49:39.902Z,96.63
2022-12-17T18:52:14.826Z,92.27
2022-12-17T18:54:45.865Z,102.07
2022-12-17T18:57:21.658Z,106.53
2022-12-17T18:59:57.710Z,102.73
2022-12-17T19:02:27.957Z,104.27
2022-12-17T19:05:01.324Z,105.53
2022-12-17T19:07:30.530Z,105.13
2022-12-17T19:10:02.669Z,106.83
2022-12-17T19:12:31.970Z,101.40
2022-12-17T19:15:02.476Z,105.03
2022-12-17T19:17:40.693Z,96.37
2022-12-17T19:20:13.387Z,91.47
2022-12-17T19:22:42.358Z,102.17
2022-12-17T19:25:15.593Z,114.97
2022-12-17T19:27:53.581Z,103.97
2022-12-17T19:30:25.728Z,108.93
2022-12-17T19:32:54.649Z,104.90
2022-12-17T19:35:24.687Z,107.23
2022-12-17T19:37:56.232Z,106.40
2022-12-17T19:40:27.614Z,109.83
2022-12-17T19:43:01.199Z,106.77
2022-12-17T19:45:30.160Z,97.77
2022-12-17T19:48:00.501Z,98.23
2022-12-17T19:50:42.658Z,104.83
2022-12-17T19:53:11.818Z,98.03
2022-12-17T19:55:45.002Z,99.70
2022-12-17T19:58:14.188Z,100.90
2022-12-17T20:00:45.252Z,97.30
2022-12-17T20:03:15.724Z,95.97
2022-12-17T20:05:57.143Z,98.27
2022-12-17T20:08:29.275Z,91.10
2022-12-17T20:10:58.331Z,96.17
2022-12-17T20:13:31.314Z,87.33
2022-12-17T20:16:26.985Z,98.80
2022-12-17T20:19:01.845Z,91.93
2022-12-17T20:21:32.489Z,98.73
2022-12-17T20:24:01.580Z,98.97
2022-12-17T20:26:35.069Z,86.87
2022-12-17T20:29:07.536Z,93.47
2022-12-17T20:31:37.273Z,95.67
2022-12-17T20:34:06.119Z,88.47
2022-12-17T20:36:36.130Z,94.43
2022-12-17T20:39:04.719Z,90.27
2022-12-17T20:41:33.325Z,94.50
2022-12-17T20:44:04.363Z,94.33
2022-12-17T20:46:33.028Z,100.83
2022-12-17T20:49:04.208Z,95.90
2022-12-17T20:51:33.288Z,98.40
2022-12-17T20:54:03.406Z,95.93
2022-12-17T20:56:32.736Z,100.30
2022-12-17T20:59:03.046Z,95.13
2022-12-17T21:01:33.466Z,102.73
2022-12-17T21:04:02.347Z,101.97
2022-12-17T21:06:32.612Z,99.03
2022-12-17T21:09:01.126Z,101.20
2022-12-17T21:11:31.598Z,101.30
2022-12-17T21:14:00.835Z,101.63
2022-12-17T21:16:33.929Z,100.77
2022-12-17T21:19:09.597Z,87.97
2022-12-17T21:21:39.065Z,90.47
2022-12-17T21:24:10.456Z,97.77
2022-12-17T21:26:43.154Z,88.77
2022-12-17T21:29:15.479Z,96.67
2022-12-17T21:31:44.920Z,91.83
2022-12-17T21:34:14.074Z,94.43
2022-12-17T21:36:42.713Z,92.40
2022-12-17T21:39:12.631Z,90.90
2022-12-17T21:41:44.619Z,96.67
2022-12-17T21:44:14.078Z,88.33
2022-12-17T21:46:47.387Z,90.63
2022-12-17T21:49:19.425Z,86.53
2022-12-17T21:51:50.670Z,92.07
2022-12-17T21:54:20.273Z,88.40
2022-12-17T21:56:53.375Z,90.30
2022-12-17T21:59:22.070Z,94.63
2022-12-17T22:01:51.161Z,96.50
2022-12-17T22:04:22.666Z,91.50
2022-12-17T22:06:59.585Z,89.00
2022-12-17T22:09:45.217Z,89.53
2022-12-17T22:12:52.297Z,93.07
2022-12-17T22:15:21.100Z,89.87
2022-12-17T22:17:51.370Z,88.73
2022-12-17T22:20:19.858Z,85.93
2022-12-17T22:22:49.100Z,91.87
2022-12-17T22:25:18.554Z,99.37
2022-12-17T22:27:49.531Z,94.37
2022-12-17T22:30:41.106Z,92.93
2022-12-17T22:33:26.312Z,90.10
2022-12-17T22:36:52.322Z,91.20
2022-12-17T22:43:17.421Z,88.77
2022-12-17T22:44:37.654Z,92.20
2022-12-17T22:44:54.124Z,91.43
2022-12-17T22:47:24.981Z,105.37
2022-12-17T22:49:56.060Z,101.10
2022-12-17T22:52:25.351Z,99.30
2022-12-17T22:54:54.448Z,99.17
2022-12-17T22:57:37.719Z,84.93
2022-12-17T23:00:15.018Z,95.83
2022-12-17T23:02:45.150Z,88.43
2022-12-17T23:05:16.949Z,82.47
2022-12-17T23:07:45.730Z,81.83
2022-12-17T23:10:57.784Z,88.97
2022-12-17T23:13:23.947Z,84.93
2022-12-17T23:16:00.975Z,81.10
2022-12-17T23:18:32.906Z,85.63
2022-12-17T23:21:10.451Z,84.00
2022-12-17T23:23:39.888Z,83.93
2022-12-17T23:26:09.393Z,85.83
2022-12-17T23:28:40.856Z,83.80
2022-12-17T23:31:11.534Z,83.13
2022-12-17T23:33:42.736Z,88.30
2022-12-17T23:36:11.890Z,87.33
2022-12-17T23:38:40.754Z,92.60
2022-12-17T23:41:13.320Z,86.63
2022-12-17T23:43:44.844Z,91.50
2022-12-17T23:46:17.797Z,87.47
2022-12-17T23:48:49.847Z,90.30
2022-12-17T23:51:24.491Z,89.67
2022-12-17T23:54:00.440Z,82.13
2022-12-17T23:56:31.896Z,97.23
2022-12-17T23:59:23.520Z,95.83
